Latest Coastal Weather Observations for Alva Beach

IDQ60701

Issued at 8:12 am EST Thursday 23 November 2017 (issued every 10 minutes, with the page automatically refreshed every 10 minutes)

About coastal observations | Map of coastal stations | Coastal observations for QLD | Marine services | Other Formats
Station Details ID: 033295 Name: ALVA BEACH Lat: -19.46 Lon: 147.48 Height: 7.5 m
Data from the previous 72 hours. | See also: Recent months at Alva Beach
Date/Time
EST
Temp
°C
Wind Pressure Rain since
9am
mm
Weather Cloud Vis
km
Sea
Height
m
Swell
Dir  Spd
kts
Gust
kts
hPa Trend Height
m
Period
s
Dir
23/08:00am 26.4 ESE 9 14 1011.5 - 0.0 - - - - - - -
23/07:30am 26.1 ESE 9 14 1011.4 - 0.0 - - - - - - -
23/07:00am 24.9 SSE 5 14 1011.2 - 0.0 - - - - - - -
23/06:30am 23.8 SE 5 12 1010.7 - 0.0 - - - - - - -
23/06:00am 22.9 ESE 4 7 1010.4 - 0.0 - - - - - - -
23/05:30am 23.8 ESE 8 13 1010.0 - 0.0 - - - - - - -
23/05:00am 23.7 ESE 9 14 1009.4 - 0.0 - - - - - - -
23/04:30am 23.9 ESE 8 13 1009.1 - 0.0 - - - - - - -
23/04:00am 23.9 SE 7 13 1009.1 - 0.0 - - - - - - -
23/03:30am 23.9 ESE 9 15 1008.9 - 0.0 - - - - - - -
23/03:00am 24.0 ESE 9 15 1008.5 - 0.0 - - - - - - -
23/02:30am 24.0 ESE 9 15 1008.6 - 0.0 - - - - - - -
23/02:00am 23.9 ESE 9 15 1008.8 - 0.0 - - - - - - -
23/01:30am 24.0 ESE 10 15 1008.7 - 0.0 - - - - - - -
23/01:00am 24.1 ESE 14 21 1009.0 - 0.0 - - - - - - -
23/12:30am 24.3 E 16 22 1009.1 - 0.0 - - - - - - -
23/12:00am 24.1 E 17 23 1009.7 - 0.0 - - - - - - -
 
Date/Time
EST
Temp
°C
Wind Pressure Rain since
9am
mm
Weather Cloud Vis
km
Sea
Height
m
Swell
Dir  Spd
kts
Gust
kts
hPa Trend Height
m
Period
s
Dir
22/11:30pm 23.9 ESE 14 21 1010.1 - 0.0 - - - - - - -
22/11:00pm 23.9 E 16 23 1010.3 - 0.0 - - - - - - -
22/10:30pm 24.5 E 17 26 1010.2 - 0.0 - - - - - - -
22/10:00pm 24.6 ESE 15 22 1010.5 - 0.0 - - - - - - -
22/09:30pm 24.6 ESE 16 23 1010.4 - 0.0 - - - - - - -
22/09:00pm 24.6 ESE 15 22 1010.4 - 0.0 - - - - - - -
22/08:30pm 24.8 E 16 22 1010.1 - 0.0 - - - - - - -
22/08:00pm 24.8 E 15 20 1010.2 - 0.0 - - - - - - -
22/07:30pm 24.9 E 16 22 1009.7 - 0.0 - - - - - - -
22/07:00pm 25.1 E 14 20 1009.6 - 0.0 - - - - - - -
22/06:30pm 25.1 E 13 17 1009.3 - 0.0 - - - - - - -
22/06:00pm 25.2 E 12 19 1009.0 - 0.0 - - - - - - -
22/05:30pm 25.6 E 14 19 1008.4 - 0.0 - - - - - - -
22/05:00pm 25.7 E 14 20 1008.5 - 0.0 - - - - - - -
22/04:30pm 25.8 E 14 18 1008.3 - 0.0 - - - - - - -
22/04:00pm 26.2 E 14 19 1008.2 - 0.0 - - - - - - -
22/03:30pm 26.0 E 13 18 1008.2 - 0.0 - - - - - - -
22/03:00pm 26.2 E 13 18 1008.5 - 0.0 - - - - - - -
22/02:30pm 25.8 E 12 18 1008.7 - 0.0 - - - - - - -
22/02:00pm 25.9 E 12 18 1009.1 - 0.0 - - - - - - -
22/01:30pm 25.9 E 12 18 1009.5 - 0.0 - - - - - - -
22/01:00pm 27.6 E 12 17 1009.8 - 0.0 - - - - - - -
22/12:30pm 28.5 E 12 18 1010.1 - 0.0 - - - - - - -
22/12:00pm 28.3 ESE 11 16 1010.3 - 0.0 - - - - - - -
22/11:30am 28.9 ESE 10 15 1010.5 - 0.0 - - - - - - -
22/11:00am 27.8 ESE 11 18 1010.7 - 0.0 - - - - - - -
22/10:30am 27.0 ESE 13 19 1010.8 - 0.0 - - - - - - -
22/10:00am 25.9 ESE 12 18 1011.3 - 0.0 - - - - - - -
22/09:30am 25.9 ESE 11 18 1011.3 - 0.0 - - - - - - -
22/09:00am 25.0 ESE 12 19 1011.3 - 0.0 - - - - - - -
22/08:30am 25.4 ESE 11 20 1011.2 - 0.0 - - - - - - -
22/08:00am 24.6 SE 12 17 1011.1 - 0.0 - - - - - - -
22/07:30am 24.7 ESE 11 16 1011.0 - 0.0 - - - - - - -
22/07:00am 24.3 ESE 9 14 1010.8 - 0.0 - - - - - - -
22/06:30am 24.0 SE 11 16 1010.6 - 0.0 - - - - - - -
22/06:00am 24.4 ESE 8 13 1010.2 - 0.0 - - - - - - -
22/05:30am 24.6 E 12 16 1009.8 - 0.0 - - - - - - -
22/05:00am 24.7 E 12 19 1009.6 - 0.0 - - - - - - -
22/04:30am 24.6 E 12 16 1009.4 - 0.0 - - - - - - -
22/04:00am 24.5 E 12 18 1009.2 - 0.0 - - - - - - -
22/03:30am 24.4 E 12 18 1009.1 - 0.0 - - - - - - -
22/03:00am 24.4 E 11 16 1009.4 - 0.0 - - - - - - -
22/02:30am 24.5 E 12 16 1009.3 - 0.0 - - - - - - -
22/02:00am 24.6 E 12 18 1009.5 - 0.0 - - - - - - -
22/01:30am 24.7 E 13 20 1009.3 - 0.0 - - - - - - -
22/01:00am 24.7 E 14 19 1009.6 - 0.0 - - - - - - -
22/12:30am 24.9 E 15 21 1010.0 - 0.0 - - - - - - -
22/12:00am 24.9 E 16 21 1010.1 - 0.0 - - - - - - -
 
Date/Time
EST
Temp
°C
Wind Pressure Rain since
9am
mm
Weather Cloud Vis
km
Sea
Height
m
Swell
Dir  Spd
kts
Gust
kts
hPa Trend Height
m
Period
s
Dir
21/11:30pm 25.0 E 14 19 1010.7 - 0.0 - - - - - - -
21/11:00pm 25.0 E 16 21 1010.7 - 0.0 - - - - - - -
21/10:30pm 25.1 E 15 20 1011.2 - 0.0 - - - - - - -
21/10:00pm 25.0 E 14 19 1011.2 - 0.0 - - - - - - -
21/09:30pm 24.9 E 14 20 1011.6 - 0.0 - - - - - - -
21/09:00pm 24.8 E 15 21 1011.6 - 0.0 - - - - - - -
21/08:30pm 24.9 ESE 14 20 1012.0 - 0.0 - - - - - - -
21/08:00pm 25.0 E 13 18 1011.8 - 0.0 - - - - - - -
21/07:30pm 25.1 E 14 18 1011.3 - 0.0 - - - - - - -
21/07:00pm 25.1 E 15 20 1011.4 - 0.0 - - - - - - -
21/06:30pm 25.2 E 15 21 1010.7 - 0.0 - - - - - - -
21/06:00pm 25.3 E 15 22 1010.8 - 0.0 - - - - - - -
21/05:30pm 25.3 E 15 20 1010.5 - 0.0 - - - - - - -
21/05:00pm 25.4 E 15 20 1010.3 - 0.0 - - - - - - -
21/04:30pm 25.3 E 15 21 1010.5 - 0.0 - - - - - - -
21/04:00pm 25.7 E 14 22 1010.5 - 0.0 - - - - - - -
21/03:30pm 25.8 E 15 20 1010.5 - 0.0 - - - - - - -
21/03:00pm 26.6 E 15 21 1010.4 - 0.0 - - - - - - -
21/02:30pm 26.0 E 13 19 1011.0 - 0.0 - - - - - - -
21/02:00pm 25.7 E 13 20 1011.6 - 0.0 - - - - - - -
21/01:30pm 25.5 E 13 18 1012.0 - 0.0 - - - - - - -
21/01:00pm 25.6 E 15 21 1012.0 - 0.0 - - - - - - -
21/12:30pm 25.6 E 15 23 1012.0 - 0.0 - - - - - - -
21/12:00pm 26.1 E 15 20 1012.4 - 0.0 - - - - - - -
21/11:30am 26.5 ESE 14 21 1012.3 - 0.0 - - - - - - -
21/11:00am 26.8 E 16 21 1012.7 - 0.0 - - - - - - -
21/10:30am 26.6 ESE 14 21 1012.9 - 0.0 - - - - - - -
21/10:00am 26.1 ESE 13 20 1013.3 - 0.0 - - - - - - -
21/09:30am 26.9 E 14 21 1013.2 - 0.0 - - - - - - -
21/09:00am 25.7 E 14 20 1013.3 - 0.0 - - - - - - -
21/08:30am 25.4 E 14 19 1013.1 - 0.0 - - - - - - -
21/08:00am 25.2 E 14 21 1012.7 - 0.0 - - - - - - -
21/07:30am 23.9 ESE 12 23 1012.6 - 0.0 - - - - - - -
21/07:00am 24.9 E 14 20 1012.5 - 0.0 - - - - - - -
21/06:30am 25.0 E 15 20 1012.2 - 0.0 - - - - - - -
21/06:09am 24.7 E 16 26 1011.5 - 0.0 - - - - - - -
21/06:00am 24.3 E 15 21 1011.4 - 0.0 - - - - - - -
21/05:30am 24.2 E 15 20 1011.4 - 0.0 - - - - - - -
21/05:00am 24.8 E 14 19 1011.1 - 0.0 - - - - - - -
21/04:30am 24.8 E 14 20 1011.1 - 0.0 - - - - - - -
21/04:00am 24.8 E 15 21 1010.9 - 0.0 - - - - - - -
21/03:30am 24.9 E 16 22 1010.8 - 0.0 - - - - - - -
21/03:00am 24.9 E 18 24 1010.7 - 0.0 - - - - - - -
21/02:30am 24.9 E 17 23 1011.0 - 0.0 - - - - - - -
21/02:00am 25.0 E 16 22 1011.3 - 0.0 - - - - - - -
21/01:30am 25.0 E 18 25 1011.0 - 0.0 - - - - - - -
21/01:00am 25.1 E 17 23 1011.7 - 0.0 - - - - - - -
21/12:30am 25.1 E 16 23 1012.0 - 0.0 - - - - - - -
21/12:00am 25.3 E 16 23 1012.7 - 0.0 - - - - - - -
 
Date/Time
EST
Temp
°C
Wind Pressure Rain since
9am
mm
Weather Cloud Vis
km
Sea
Height
m
Swell
Dir  Spd
kts
Gust
kts
hPa Trend Height
m
Period
s
Dir
20/11:30pm 25.2 E 16 22 1013.1 - 0.0 - - - - - - -
20/11:00pm 25.2 E 17 24 1013.4 - 0.0 - - - - - - -
20/10:50pm 25.0 E 16 26 1013.5 - 0.0 - - - - - - -
20/10:30pm 25.1 E 17 24 1013.8 - 0.0 - - - - - - -
20/10:00pm 25.1 E 15 23 1013.7 - 0.0 - - - - - - -
20/09:30pm 25.2 E 17 24 1013.5 - 0.0 - - - - - - -
20/09:00pm 25.3 E 17 24 1013.2 - 0.0 - - - - - - -
20/08:30pm 25.6 E 17 22 1012.7 - 0.0 - - - - - - -
20/08:00pm 25.5 E 17 22 1012.3 - 0.0 - - - - - - -
20/07:30pm 25.5 E 16 21 1012.1 - 0.0 - - - - - - -
20/07:00pm 25.7 E 15 20 1011.5 - 0.0 - - - - - - -
20/06:30pm 25.6 E 16 20 1011.5 - 0.0 - - - - - - -
20/06:00pm 26.0 E 15 20 1011.1 - 0.0 - - - - - - -
20/05:30pm 26.0 ENE 16 20 1011.3 - 0.0 - - - - - - -
20/05:00pm 26.4 ENE 14 18 1010.8 - 0.0 - - - - - - -
20/04:30pm 26.5 E 14 19 1010.9 - 0.0 - - - - - - -
20/04:00pm 26.5 E 14 18 1011.1 - 0.0 - - - - - - -
20/03:30pm 26.7 E 13 17 1011.2 - 0.0 - - - - - - -
20/03:00pm 27.4 ENE 13 17 1011.3 - 0.0 - - - - - - -
20/02:30pm 27.3 ENE 15 18 1011.4 - 0.0 - - - - - - -
20/02:00pm 27.4 E 13 17 1011.7 - 0.0 - - - - - - -
20/01:30pm 27.4 E 12 17 1012.4 - 0.0 - - - - - - -
20/01:00pm 27.9 ENE 14 18 1012.6 - 0.0 - - - - - - -
20/12:30pm 28.1 ENE 13 16 1013.1 - 0.0 - - - - - - -
20/12:00pm 27.0 E 14 18 1013.1 - 0.0 - - - - - - -
20/11:30am 26.8 E 12 17 1013.3 - 0.0 - - - - - - -
20/11:00am 26.6 E 11 16 1013.7 - 0.0 - - - - - - -
20/10:30am 27.0 E 10 16 1013.8 - 0.0 - - - - - - -
20/10:00am 26.6 E 11 14 1013.7 - 0.0 - - - - - - -
20/09:30am 26.9 E 12 16 1013.7 - 0.0 - - - - - - -
20/09:00am 26.9 E 12 16 1013.6 - 0.0 - - - - - - -
20/08:30am 26.7 E 11 16 1013.7 - 0.0 - - - - - - -

Other Formats:

Comma delimited format used in spreadsheet applications
http://www.bom.gov.au/fwo/IDQ60701/IDQ60701.95296.axf

JavaScript Object Notation format (JSON) in row-major order
http://www.bom.gov.au/fwo/IDQ60701/IDQ60701.95296.json